Aeroporto :
LOGIN :

Iscrizione | Disclaimer

   EN    FR    IT 

 










Sommario :    VFR   VFR Marginale   IFR   IFR Intensivo   IFR Molto Intensivo
Visibilità : 
Base nubi : 
>= 8 km
>= 3000ft
5 / 8 km
1000 / 3000 ft
1500m / 5 km
500 / 1000 ft
800 / 1500m
200 / 500 ft
< 800m
< 200 ft
Simboli :   Temporali  Nebbia  Neve Forte  Precipitazioni Forti  Vento > 20 kt
SIGMETs :   Varie  Temporali  Ghiacco  Turbolenza  Onda orograficha  Ceneri Vulcaniche






- Altitudine del aeroporto : 177 ft
- Codice IATA : AYT


LTAI - Antalya

ULTIMO METAR :
  • 271620Z 11008KT 9999 SCT030 20/15 Q1012 NOSIG RMK RWY18C 09009KT RWY36R 10008KT RWY18L 08008KT

METARs OBSOLETI :
  • 271550Z 13009KT 9999 SCT030 21/15 Q1012 NOSIG RMK RWY18C 12010KT RWY36R 11009KT RWY18L 12008KT 070V150
  • 271520Z 13009KT 080V150 9999 SCT030 21/15 Q1013 NOSIG RMK RWY18C 12012KT 090V150 RWY36R 11010KT RWY18L 12009KT 090V150
  • 271450Z 14010KT 090V180 9999 SCT030 22/16 Q1013 NOSIG RMK RWY18C 13010KT 090V170 RWY36R 12011KT RWY18L 14009KT 110V170
  • 271420Z 13010KT 100V180 9999 SCT030 22/16 Q1013 NOSIG RMK RWY18C 13011KT 100V170 RWY36R 12011KT 100V170 RWY18L 13009KT 100V160
  • 271350Z 15010KT 110V200 9999 SCT030 22/17 Q1013 NOSIG RMK RWY18C 13012KT RWY36R 14012KT RWY18L 15010KT 120V190

TAF TAF LTAI
Valido dal 27 a 12 ore il 28 a 12 ore UTC


271040Z 2712/2812 18014KT 9999 SCT030
TEMPO 2712/2716 FEW025CB
BECMG 2716/2720 36009KT
BECMG 2800/2804 -SHRA BKN030
BECMG 2804/2808 15012KT FEW020CB BKN030
BECMG 2808/2812 16018G28KT
PROB30
TEMPO 2808/2812 -TSRA



MetMap, La meteo Aeronautica in un colpo d'occhio ! - Copyright ORBIFLY Dicembre 2007 - Disclaimer

ORBIFLY MET'MAP TEAM :

Programmazione e sviluppo : Alexandra Zaïnal
Concezione : Baudouin d'Aumeries
Aiuto per la programmazione : Marc-Olivier Méhu
Supporto tecnico e logistico : Manuel Goepfert
Aiuto per la traduzione : Arnaldo La Scala

Contatto : metmap@orbifly.com




FONTI E CREDITI :

   NOAA